This is the latest recevied weather packets stored in our database for station/object KF0JHJ. If no packets are shown the sender has not sent any weather packets the latest 1 day(s).
| Time | Temp. | Humidity | Pressure | Rain* | Wind** | Luminosity | Snow |
|---|---|---|---|---|---|---|---|
| 1778093305 | 6.11° C | 54% | 1014.5 hPa | - | - | 194 W/m² | - |
| 1778092700 | 6.67° C | 56% | 1014.5 hPa | - | - | 198 W/m² | - |
| 1778091790 | 6.11° C | 56% | 1014.7 hPa | - | - | 166 W/m² | - |
| 1778091185 | 5.56° C | 58% | 1014.7 hPa | - | - | 143 W/m² | - |
| 1778090577 | 5.56° C | 60% | 1014.6 hPa | - | - | 114 W/m² | - |
| 1778089971 | 5.56° C | 58% | 1014.7 hPa | - | - | 184 W/m² | - |
| 1778088760 | 4.44° C | 60% | 1015 hPa | - | - | 95 W/m² | - |
| 1778087246 | 5° C | 59% | 1014.8 hPa | - | - | 88 W/m² | - |
| 1778086337 | 5° C | 57% | 1015.1 hPa | - | - | 108 W/m² | - |
| 1778084819 | 5° C | 61% | 1015.1 hPa | - | - | 136 W/m² | - |
| 1778084214 | 4.44° C | 61% | 1015.2 hPa | - | - | 110 W/m² | - |
| 1778083305 | 4.44° C | 60% | 1015.3 hPa | - | - | 100 W/m² | - |
| 1778083003 | 4.44° C | 61% | 1015.4 hPa | - | - | 103 W/m² | - |
| 1778082700 | 4.44° C | 62% | 1015.2 hPa | - | - | 103 W/m² | - |
| 1778081562 | 3.89° C | 59% | 1015 hPa | - | - | 98 W/m² | - |
| 1778081259 | 3.89° C | 61% | 1014.9 hPa | - | - | 98 W/m² | - |
| 1778080048 | 3.89° C | 60% | 1015 hPa | - | - | 83 W/m² | - |
| 1778079745 | 3.89° C | 60% | 1014.9 hPa | - | - | 83 W/m² | - |
| 1778078836 | 3.89° C | 62% | 1015 hPa | - | - | 77 W/m² | - |
| 1778078533 | 3.33° C | 63% | 1015.1 hPa | - | - | 78 W/m² | - |
| 1778078231 | 3.33° C | 62% | 1015.1 hPa | - | - | 75 W/m² | - |
| 1778077627 | 3.33° C | 62% | 1014.9 hPa | - | - | 73 W/m² | - |
| 1778075508 | 2.78° C | 65% | 1015 hPa | - | - | 39 W/m² | - |
| 1778074899 | 2.78° C | 66% | 1015 hPa | - | - | 34 W/m² | - |
| 1778074597 | 2.78° C | 66% | 1014.8 hPa | - | - | 33 W/m² | - |
* Rain since midnight (hover to see other rain measurements)
** Current wind speed in m/s (hover to see current wind gust speed)